createdAt,value
2019-01-21T00:00:39.464Z,-6.00
2019-01-21T00:03:14.476Z,-6.00
2019-01-21T00:05:39.506Z,-6.00
2019-01-21T00:08:08.955Z,-6.00
2019-01-21T00:10:39.175Z,-6.10
2019-01-21T00:13:08.442Z,-6.10
2019-01-21T00:15:37.649Z,-6.10
2019-01-21T00:18:06.803Z,-6.10
2019-01-21T00:20:37.094Z,-6.10
2019-01-21T00:23:06.323Z,-6.10
2019-01-21T00:25:35.438Z,-6.10
2019-01-21T00:28:04.543Z,-6.20
2019-01-21T00:30:33.670Z,-6.10
2019-01-21T00:33:02.765Z,-6.00
2019-01-21T00:35:31.888Z,-6.10
2019-01-21T00:38:00.992Z,-6.10
2019-01-21T00:40:30.111Z,-6.10
2019-01-21T00:42:59.212Z,-6.10
2019-01-21T00:45:28.323Z,-6.10
2019-01-21T00:47:58.398Z,-6.20
2019-01-21T00:50:27.528Z,-6.20
2019-01-21T00:52:56.635Z,-6.10
2019-01-21T00:55:25.751Z,-6.10
2019-01-21T00:57:54.859Z,-6.00
2019-01-21T01:00:25.290Z,-6.10
2019-01-21T01:02:54.674Z,-6.10
2019-01-21T01:05:23.790Z,-6.10
2019-01-21T01:07:52.902Z,-6.10
2019-01-21T01:10:22.018Z,-6.10
2019-01-21T01:12:51.122Z,-6.10
2019-01-21T01:15:20.233Z,-6.10
2019-01-21T01:17:49.342Z,-6.10
2019-01-21T01:20:19.713Z,-6.00
2019-01-21T01:22:48.807Z,-6.00
2019-01-21T01:25:17.935Z,-6.00
2019-01-21T01:27:47.043Z,-6.10
2019-01-21T01:30:16.926Z,-6.10
2019-01-21T01:32:46.039Z,-6.10
2019-01-21T01:35:15.518Z,-6.10
2019-01-21T01:37:44.697Z,-6.10
2019-01-21T01:40:15.454Z,-6.10
2019-01-21T01:42:44.634Z,-6.20
2019-01-21T01:45:17.189Z,-6.20
2019-01-21T01:47:46.291Z,-6.30
2019-01-21T01:50:15.406Z,-6.30
2019-01-21T01:52:44.513Z,-6.50
2019-01-21T01:55:13.627Z,-6.40
2019-01-21T01:57:42.736Z,-6.50
2019-01-21T02:00:15.254Z,-6.50
2019-01-21T02:02:44.362Z,-6.50
2019-01-21T02:05:13.475Z,-6.50
2019-01-21T02:07:42.582Z,-6.40
2019-01-21T02:10:13.161Z,-6.40
2019-01-21T02:12:42.267Z,-6.40
2019-01-21T02:15:13.995Z,-6.50
2019-01-21T02:17:43.135Z,-6.50
2019-01-21T02:20:18.754Z,-6.50
2019-01-21T02:22:50.495Z,-6.60
2019-01-21T02:25:19.615Z,-6.50
2019-01-21T02:28:11.197Z,-6.50
2019-01-21T02:31:10.695Z,-6.50
2019-01-21T02:33:59.704Z,-6.40
2019-01-21T02:37:05.300Z,-6.40
2019-01-21T02:39:55.446Z,-6.20
2019-01-21T02:42:48.395Z,-6.30
2019-01-21T02:45:29.651Z,-6.40
2019-01-21T02:48:14.050Z,-6.50
2019-01-21T02:50:46.452Z,-6.60
2019-01-21T02:53:24.803Z,-6.70
2019-01-21T02:56:12.462Z,-6.70
2019-01-21T02:59:03.094Z,-6.70
2019-01-21T03:01:58.088Z,-6.80
2019-01-21T03:04:33.128Z,-6.90
2019-01-21T03:07:28.246Z,-6.80
2019-01-21T03:10:00.616Z,-6.90
2019-01-21T03:12:44.252Z,-6.90
2019-01-21T03:15:16.611Z,-6.90
2019-01-21T03:17:55.084Z,-6.90
2019-01-21T03:20:50.131Z,-7.00
2019-01-21T03:23:28.264Z,-7.00
2019-01-21T03:26:18.809Z,-7.00
2019-01-21T03:29:06.211Z,-7.00
2019-01-21T03:31:53.008Z,-7.00
2019-01-21T03:34:43.401Z,-7.00
2019-01-21T03:37:27.634Z,-7.00
2019-01-21T03:40:00.000Z,-6.90
2019-01-21T03:42:44.143Z,-6.90
2019-01-21T03:45:28.129Z,-6.90
2019-01-21T03:48:00.876Z,-6.90
2019-01-21T03:50:33.262Z,-7.10
2019-01-21T03:53:17.319Z,-7.10
2019-01-21T03:55:48.666Z,-7.20
2019-01-21T03:58:29.922Z,-7.10
2019-01-21T04:01:08.032Z,-7.20
2019-01-21T04:04:15.368Z,-7.20
2019-01-21T04:06:47.731Z,-7.20
2019-01-21T04:09:31.728Z,-7.20
2019-01-21T04:12:09.851Z,-7.20
2019-01-21T04:15:13.384Z,-7.20
2019-01-21T04:18:04.094Z,-7.20
2019-01-21T04:21:02.260Z,-7.30
2019-01-21T04:23:46.834Z,-7.20
2019-01-21T04:26:31.436Z,-7.30
2019-01-21T04:29:09.530Z,-7.20
2019-01-21T04:32:06.225Z,-7.30
2019-01-21T04:34:47.430Z,-7.40
2019-01-21T04:37:25.728Z,-7.40
2019-01-21T04:40:09.816Z,-7.40
2019-01-21T04:42:51.258Z,-7.40
2019-01-21T04:45:26.217Z,-7.30
2019-01-21T04:48:16.532Z,-7.40
2019-01-21T04:50:54.081Z,-7.40
2019-01-21T04:53:35.104Z,-7.30
2019-01-21T04:56:07.467Z,-7.30
2019-01-21T04:58:55.078Z,-7.40
2019-01-21T05:01:42.583Z,-7.40
2019-01-21T05:04:20.702Z,-7.40
2019-01-21T05:07:04.877Z,-7.50
2019-01-21T05:09:46.316Z,-7.50
2019-01-21T05:12:43.784Z,-7.40
2019-01-21T05:15:45.129Z,-7.40
2019-01-21T05:18:31.909Z,-7.40
2019-01-21T05:21:13.288Z,-7.40
2019-01-21T05:24:03.361Z,-7.40
2019-01-21T05:27:03.057Z,-7.40
2019-01-21T05:29:43.919Z,-7.50
2019-01-21T05:32:41.894Z,-7.40
2019-01-21T05:35:30.599Z,-7.30
2019-01-21T05:38:06.357Z,-7.30
2019-01-21T05:41:05.779Z,-7.20
2019-01-21T05:43:50.105Z,-7.10
2019-01-21T05:46:28.011Z,-7.10
2019-01-21T05:49:05.889Z,-7.10
2019-01-21T05:51:59.376Z,-7.10
2019-01-21T05:54:48.344Z,-7.10
2019-01-21T05:57:53.763Z,-7.10
2019-01-21T06:00:47.084Z,-7.00
2019-01-21T06:03:31.231Z,-7.00
2019-01-21T06:06:03.606Z,-7.10
2019-01-21T06:08:55.434Z,-7.10
2019-01-21T06:11:27.795Z,-7.10
2019-01-21T06:14:00.207Z,-7.10
2019-01-21T06:16:32.577Z,-7.00
2019-01-21T06:19:09.355Z,-6.90
2019-01-21T06:21:44.622Z,-6.90
2019-01-21T06:24:37.137Z,-6.90
2019-01-21T06:27:12.326Z,-6.90
2019-01-21T06:29:53.438Z,-6.90
2019-01-21T06:32:31.395Z,-6.80
2019-01-21T06:35:03.767Z,-6.80
2019-01-21T06:37:47.920Z,-6.70
2019-01-21T06:40:36.822Z,-6.50
2019-01-21T06:43:25.736Z,-6.50
2019-01-21T06:46:03.797Z,-6.40
2019-01-21T06:48:53.833Z,-6.40
2019-01-21T06:51:31.836Z,-6.40
2019-01-21T06:54:31.365Z,-6.40
2019-01-21T06:57:18.830Z,-6.40
2019-01-21T06:59:56.948Z,-6.30
2019-01-21T07:02:41.217Z,-6.40
2019-01-21T07:05:19.389Z,-6.30
2019-01-21T07:08:06.912Z,-6.40
2019-01-21T07:10:39.293Z,-6.40
2019-01-21T07:13:20.675Z,-6.50
2019-01-21T07:16:11.256Z,-6.50
2019-01-21T07:19:04.080Z,-6.40
2019-01-21T07:22:03.614Z,-6.40
2019-01-21T07:24:48.088Z,-6.40
2019-01-21T07:27:20.471Z,-6.30
2019-01-21T07:30:09.188Z,-6.30
2019-01-21T07:32:50.467Z,-6.30
2019-01-21T07:35:42.416Z,-6.30
2019-01-21T07:38:14.799Z,-6.20
2019-01-21T07:40:58.477Z,-6.20
2019-01-21T07:43:48.903Z,-6.20
2019-01-21T07:46:36.127Z,-6.20
2019-01-21T07:49:25.223Z,-6.20
2019-01-21T07:52:14.487Z,-6.30
2019-01-21T07:54:46.852Z,-6.30
2019-01-21T07:57:47.956Z,-6.30
2019-01-21T08:00:26.050Z,-6.30
2019-01-21T08:03:03.720Z,-6.30
2019-01-21T08:05:44.327Z,-6.30
2019-01-21T08:08:37.970Z,-6.30
2019-01-21T08:11:22.068Z,-6.30
2019-01-21T08:14:00.237Z,-6.20
2019-01-21T08:16:56.899Z,-6.20
2019-01-21T08:19:51.664Z,-6.10
2019-01-21T08:22:52.146Z,-6.20
2019-01-21T08:25:47.344Z,-6.10
2019-01-21T08:28:25.556Z,-6.10
2019-01-21T08:31:14.714Z,-6.10
2019-01-21T08:33:55.624Z,-6.10
2019-01-21T08:36:44.745Z,-6.00
2019-01-21T08:39:35.281Z,-5.90
2019-01-21T08:42:13.140Z,-5.80
2019-01-21T08:45:03.363Z,-5.80
2019-01-21T08:47:35.746Z,-5.70
2019-01-21T08:50:18.330Z,-5.60
2019-01-21T08:52:58.896Z,-5.50
2019-01-21T08:55:47.692Z,-5.50
2019-01-21T08:58:22.731Z,-5.40
2019-01-21T09:01:00.580Z,-5.30
2019-01-21T09:03:44.843Z,-5.30
2019-01-21T09:06:32.424Z,-5.20
2019-01-21T09:09:10.562Z,-5.10
2019-01-21T09:12:17.336Z,-5.00
2019-01-21T09:14:55.729Z,-4.90
2019-01-21T09:17:44.006Z,-4.90
2019-01-21T09:20:28.228Z,-4.80
2019-01-21T09:23:06.692Z,-4.70
2019-01-21T09:25:47.885Z,-4.60
2019-01-21T09:28:23.257Z,-4.50
2019-01-21T09:31:07.400Z,-4.30
2019-01-21T09:33:51.480Z,-4.10
2019-01-21T09:36:32.611Z,-3.90
2019-01-21T09:39:04.987Z,-3.50
2019-01-21T09:41:55.525Z,-3.10
2019-01-21T09:44:27.959Z,-2.70
2019-01-21T09:46:56.237Z,-2.30
2019-01-21T09:49:24.529Z,-2.00
2019-01-21T09:51:54.168Z,-1.90
2019-01-21T09:54:23.427Z,-1.60
2019-01-21T09:56:54.783Z,-1.10
2019-01-21T09:59:24.887Z,-0.60
2019-01-21T10:01:56.494Z,-0.20
2019-01-21T10:04:31.800Z,-0.10
2019-01-21T10:07:09.767Z,-0.20
2019-01-21T10:09:44.658Z,-0.10
2019-01-21T10:12:28.816Z,0.00
2019-01-21T10:15:10.212Z,0.20
2019-01-21T10:18:03.754Z,0.10
2019-01-21T10:20:58.802Z,0.40
2019-01-21T10:23:33.999Z,0.50
2019-01-21T10:26:22.836Z,0.40
2019-01-21T10:28:55.223Z,0.20
2019-01-21T10:31:48.679Z,0.50
2019-01-21T10:34:40.786Z,0.40
2019-01-21T10:37:19.079Z,0.90
2019-01-21T10:40:07.982Z,1.40
2019-01-21T10:42:46.534Z,1.30
2019-01-21T10:45:24.860Z,0.90
2019-01-21T10:48:03.066Z,1.10
2019-01-21T10:50:44.622Z,1.40
2019-01-21T10:53:17.059Z,1.30
2019-01-21T10:56:04.563Z,1.20
2019-01-21T10:59:10.568Z,1.20
2019-01-21T11:02:06.393Z,1.20
2019-01-21T11:04:59.339Z,1.20
2019-01-21T11:07:46.600Z,1.30
2019-01-21T11:10:27.406Z,1.20
2019-01-21T11:13:17.932Z,1.30
2019-01-21T11:15:56.031Z,1.40
2019-01-21T11:18:28.395Z,1.30
2019-01-21T11:21:03.552Z,1.40
2019-01-21T11:23:41.514Z,1.50
2019-01-21T11:26:39.288Z,1.60
2019-01-21T11:29:29.715Z,1.50
2019-01-21T11:32:11.104Z,1.70
2019-01-21T11:34:57.855Z,1.70
2019-01-21T11:37:38.633Z,1.30
2019-01-21T11:40:19.549Z,1.50
2019-01-21T11:43:00.651Z,1.50
2019-01-21T11:45:38.634Z,1.80
2019-01-21T11:48:23.166Z,1.50
2019-01-21T11:51:01.503Z,1.70
2019-01-21T11:53:57.853Z,1.90
2019-01-21T11:56:30.215Z,1.60
2019-01-21T11:59:16.900Z,1.50
2019-01-21T12:02:16.812Z,1.40
2019-01-21T12:05:05.852Z,1.30
2019-01-21T12:07:56.395Z,1.50
2019-01-21T12:10:49.731Z,1.70
2019-01-21T12:13:55.762Z,1.80
2019-01-21T12:16:28.131Z,1.90
2019-01-21T12:19:12.533Z,2.10
2019-01-21T12:22:13.274Z,2.40
2019-01-21T12:24:43.418Z,2.60
2019-01-21T12:27:21.862Z,2.60
2019-01-21T12:30:00.174Z,2.70
2019-01-21T12:32:47.034Z,2.90
2019-01-21T12:35:28.160Z,3.00
2019-01-21T12:38:00.609Z,3.20
2019-01-21T12:40:44.980Z,3.30
2019-01-21T12:43:26.934Z,3.70
2019-01-21T12:46:07.842Z,3.60
2019-01-21T12:48:40.220Z,3.70
2019-01-21T12:51:15.254Z,3.50
2019-01-21T12:54:15.666Z,3.30
2019-01-21T12:57:03.183Z,3.30
2019-01-21T12:59:53.886Z,3.50
2019-01-21T13:02:40.802Z,4.00
2019-01-21T13:05:22.026Z,4.40
2019-01-21T13:07:54.399Z,4.70
2019-01-21T13:10:32.498Z,4.50
2019-01-21T13:13:20.006Z,4.30
2019-01-21T13:15:52.367Z,4.00
2019-01-21T13:18:24.753Z,4.60
2019-01-21T13:21:02.408Z,5.00
2019-01-21T13:23:34.796Z,5.20
2019-01-21T13:26:24.969Z,5.80
2019-01-21T13:29:14.998Z,5.60
2019-01-21T13:31:47.368Z,5.20
2019-01-21T13:34:48.802Z,4.90
2019-01-21T13:37:27.352Z,5.00
2019-01-21T13:40:14.361Z,5.40
2019-01-21T13:43:13.815Z,5.20
2019-01-21T13:45:48.911Z,5.40
2019-01-21T13:48:21.279Z,5.40
2019-01-21T13:51:04.989Z,5.40
2019-01-21T13:53:55.515Z,5.50
2019-01-21T13:56:33.615Z,5.60
2019-01-21T13:59:36.363Z,5.30
2019-01-21T14:02:14.647Z,5.30
2019-01-21T14:04:49.912Z,5.20
2019-01-21T14:07:55.689Z,5.00
2019-01-21T14:10:55.020Z,4.80
2019-01-21T14:13:27.384Z,4.50
2019-01-21T14:16:08.447Z,4.30
2019-01-21T14:18:57.547Z,4.20
2019-01-21T14:21:35.838Z,4.10
2019-01-21T14:24:24.843Z,4.40
2019-01-21T14:27:02.692Z,4.60
2019-01-21T14:29:47.127Z,4.90
2019-01-21T14:32:35.949Z,5.20
2019-01-21T14:35:09.287Z,5.40
2019-01-21T14:37:53.579Z,5.30
2019-01-21T14:40:31.888Z,5.20
2019-01-21T14:43:27.975Z,4.80
2019-01-21T14:46:19.745Z,4.70
2019-01-21T14:49:04.456Z,4.70
2019-01-21T14:51:52.935Z,4.70
2019-01-21T14:54:25.292Z,4.80
2019-01-21T14:57:15.556Z,4.70
2019-01-21T14:59:51.787Z,4.80
2019-01-21T15:02:29.791Z,4.80
2019-01-21T15:05:20.019Z,4.40
2019-01-21T15:07:55.148Z,3.80
2019-01-21T15:10:30.140Z,3.20
2019-01-21T15:13:11.182Z,2.70
2019-01-21T15:16:07.572Z,2.40
2019-01-21T15:18:42.743Z,2.20
2019-01-21T15:21:29.721Z,2.10
2019-01-21T15:24:17.079Z,1.90
2019-01-21T15:26:55.151Z,1.80
2019-01-21T15:29:33.310Z,1.70
2019-01-21T15:32:26.803Z,1.50
2019-01-21T15:35:01.853Z,1.40
2019-01-21T15:37:52.409Z,1.30
2019-01-21T15:40:36.578Z,1.10
2019-01-21T15:43:11.843Z,1.00
2019-01-21T15:45:44.294Z,0.90
2019-01-21T15:48:34.082Z,0.80
2019-01-21T15:51:09.267Z,0.70
2019-01-21T15:54:15.007Z,0.70
2019-01-21T15:56:50.379Z,0.60
2019-01-21T15:59:37.798Z,0.60
2019-01-21T16:02:12.903Z,0.60
2019-01-21T16:04:54.123Z,0.50
2019-01-21T16:07:27.460Z,0.40
2019-01-21T16:10:08.516Z,0.30
2019-01-21T16:13:03.419Z,0.20
2019-01-21T16:15:47.721Z,0.10
2019-01-21T16:18:28.852Z,0.10
2019-01-21T16:21:23.646Z,0.10
2019-01-21T16:24:01.643Z,0.00
2019-01-21T16:26:34.056Z,-0.10
2019-01-21T16:29:12.289Z,-0.10
2019-01-21T16:31:42.135Z,-0.10
2019-01-21T16:34:23.192Z,-0.10
2019-01-21T16:37:12.094Z,-0.20
2019-01-21T16:39:50.382Z,-0.20
2019-01-21T16:42:18.591Z,-0.30
2019-01-21T16:44:47.739Z,-0.30
2019-01-21T16:47:16.838Z,-0.30
2019-01-21T16:49:45.942Z,-0.30
2019-01-21T16:52:15.046Z,-0.40
2019-01-21T16:54:44.170Z,-0.40
2019-01-21T16:57:13.485Z,-0.50
2019-01-21T16:59:42.912Z,-0.50
2019-01-21T17:02:12.022Z,-0.50
2019-01-21T17:04:41.272Z,-0.50
2019-01-21T17:07:10.386Z,-0.60
2019-01-21T17:09:39.521Z,-0.60
2019-01-21T17:12:08.840Z,-0.70
2019-01-21T17:14:39.355Z,-0.80
2019-01-21T17:17:08.564Z,-0.80
2019-01-21T17:19:37.787Z,-0.90
2019-01-21T17:22:06.925Z,-1.00
2019-01-21T17:24:36.038Z,-1.00
2019-01-21T17:27:05.138Z,-1.10
2019-01-21T17:29:34.631Z,-1.20
2019-01-21T17:32:04.058Z,-1.30
2019-01-21T17:34:33.169Z,-1.40
2019-01-21T17:37:02.427Z,-1.50
2019-01-21T17:39:31.634Z,-1.60
2019-01-21T17:42:00.738Z,-1.70
2019-01-21T17:44:29.867Z,-1.80
2019-01-21T17:46:58.973Z,-1.80
2019-01-21T17:49:28.096Z,-1.90
2019-01-21T17:51:57.209Z,-1.90
2019-01-21T17:54:26.327Z,-2.00
2019-01-21T17:56:55.439Z,-2.00
2019-01-21T17:59:24.576Z,-2.10
2019-01-21T18:01:53.751Z,-2.10
2019-01-21T18:04:22.882Z,-2.10
2019-01-21T18:06:51.991Z,-2.20
2019-01-21T18:09:21.184Z,-2.20
2019-01-21T18:11:50.296Z,-2.20
2019-01-21T18:14:19.412Z,-2.20
2019-01-21T18:16:49.482Z,-2.30
2019-01-21T18:19:18.606Z,-2.30
2019-01-21T18:21:47.739Z,-2.30
2019-01-21T18:24:16.959Z,-2.40
2019-01-21T18:26:46.071Z,-2.40
2019-01-21T18:29:15.436Z,-2.40
2019-01-21T18:31:44.546Z,-2.50
2019-01-21T18:34:13.678Z,-2.50
2019-01-21T18:36:42.789Z,-2.50
2019-01-21T18:39:11.961Z,-2.60
2019-01-21T18:41:41.111Z,-2.70
2019-01-21T18:44:10.214Z,-2.70
2019-01-21T18:46:39.334Z,-2.70
2019-01-21T18:49:08.578Z,-2.70
2019-01-21T18:51:37.695Z,-2.70
2019-01-21T18:54:06.811Z,-2.70
2019-01-21T18:56:35.934Z,-2.70
2019-01-21T18:59:05.235Z,-2.80
2019-01-21T19:01:34.391Z,-2.80
2019-01-21T19:04:03.498Z,-2.80
2019-01-21T19:06:32.634Z,-2.90
2019-01-21T19:09:01.764Z,-2.90
2019-01-21T19:11:32.679Z,-2.90
2019-01-21T19:14:01.778Z,-2.90
2019-01-21T19:16:30.896Z,-3.00
2019-01-21T19:19:00.015Z,-3.00
2019-01-21T19:21:29.240Z,-3.10
2019-01-21T19:23:58.342Z,-3.10
2019-01-21T19:26:27.475Z,-3.00
2019-01-21T19:28:56.644Z,-3.00
2019-01-21T19:31:25.763Z,-3.00
2019-01-21T19:33:54.873Z,-3.00
2019-01-21T19:36:23.991Z,-2.90
2019-01-21T19:38:53.105Z,-2.90
2019-01-21T19:41:22.245Z,-2.80
2019-01-21T19:43:51.423Z,-2.80
2019-01-21T19:46:20.546Z,-2.80
2019-01-21T19:48:49.762Z,-2.70
2019-01-21T19:51:20.964Z,-2.70
2019-01-21T19:53:50.104Z,-2.70
2019-01-21T19:56:19.272Z,-2.70
2019-01-21T19:58:48.386Z,-2.60
2019-01-21T20:01:17.577Z,-2.50
2019-01-21T20:03:46.688Z,-2.50
2019-01-21T20:06:15.803Z,-2.50
2019-01-21T20:08:44.937Z,-2.50
2019-01-21T20:11:14.048Z,-2.40
2019-01-21T20:13:43.163Z,-2.40
2019-01-21T20:16:12.279Z,-2.30
2019-01-21T20:18:41.477Z,-2.30
2019-01-21T20:21:11.697Z,-2.20
2019-01-21T20:23:40.799Z,-2.10
2019-01-21T20:26:09.925Z,-2.10
2019-01-21T20:28:39.038Z,-2.10
2019-01-21T20:31:08.153Z,-2.10
2019-01-21T20:33:37.331Z,-2.10
2019-01-21T20:36:06.447Z,-2.00
2019-01-21T20:38:35.566Z,-2.00
2019-01-21T20:41:04.685Z,-1.90
2019-01-21T20:43:33.899Z,-1.90
2019-01-21T20:46:03.043Z,-1.80
2019-01-21T20:48:32.159Z,-1.70
2019-01-21T20:51:01.296Z,-1.70
2019-01-21T20:53:30.414Z,-1.70
2019-01-21T20:55:59.527Z,-1.70
2019-01-21T20:58:28.677Z,-1.60
2019-01-21T21:00:57.792Z,-1.60
2019-01-21T21:03:27.070Z,-1.50
2019-01-21T21:05:56.212Z,-1.50
2019-01-21T21:08:25.332Z,-1.40
2019-01-21T21:10:54.463Z,-1.30
2019-01-21T21:13:23.586Z,-1.30
2019-01-21T21:15:52.690Z,-1.30
2019-01-21T21:18:21.822Z,-1.30
2019-01-21T21:20:50.979Z,-1.30
2019-01-21T21:23:20.082Z,-1.30
2019-01-21T21:25:49.183Z,-1.30
2019-01-21T21:28:18.373Z,-1.30
2019-01-21T21:30:47.872Z,-1.30
2019-01-21T21:33:17.006Z,-1.30
2019-01-21T21:35:47.071Z,-1.20
2019-01-21T21:38:16.204Z,-1.20
2019-01-21T21:40:45.298Z,-1.20
2019-01-21T21:43:14.483Z,-1.10
2019-01-21T21:45:43.605Z,-1.20
2019-01-21T21:48:12.797Z,-1.10
2019-01-21T21:50:41.971Z,-1.20
2019-01-21T21:53:11.083Z,-1.20
2019-01-21T21:55:40.191Z,-1.10
2019-01-21T21:58:09.318Z,-1.10
2019-01-21T22:00:38.423Z,-1.20
2019-01-21T22:03:07.725Z,-1.10
2019-01-21T22:05:36.834Z,-1.10
2019-01-21T22:08:06.081Z,-1.00
2019-01-21T22:10:35.574Z,-1.00
2019-01-21T22:13:04.692Z,-1.00
2019-01-21T22:15:33.795Z,-1.00
2019-01-21T22:18:03.896Z,-0.90
2019-01-21T22:20:33.016Z,-0.90
2019-01-21T22:23:02.552Z,-0.90
2019-01-21T22:25:31.671Z,-0.90
2019-01-21T22:28:00.852Z,-0.90
2019-01-21T22:30:29.967Z,-1.00
2019-01-21T22:32:59.101Z,-0.90
2019-01-21T22:35:28.215Z,-0.90
2019-01-21T22:37:57.328Z,-0.90
2019-01-21T22:40:26.442Z,-0.80
2019-01-21T22:42:55.592Z,-0.90
2019-01-21T22:45:24.834Z,-0.80
2019-01-21T22:47:54.928Z,-0.80
2019-01-21T22:50:24.036Z,-0.80
2019-01-21T22:52:54.541Z,-0.90
2019-01-21T22:55:23.937Z,-0.90
2019-01-21T22:57:53.168Z,-0.90
2019-01-21T23:00:45.706Z,-0.90
2019-01-21T23:03:14.988Z,-1.00
2019-01-21T23:05:44.113Z,-1.00
2019-01-21T23:08:13.216Z,-1.00
2019-01-21T23:10:42.326Z,-1.00
2019-01-21T23:13:11.507Z,-1.10
2019-01-21T23:15:40.619Z,-1.10
2019-01-21T23:18:09.727Z,-1.20
2019-01-21T23:20:38.843Z,-1.20
2019-01-21T23:23:08.232Z,-1.20
2019-01-21T23:25:37.416Z,-1.30
2019-01-21T23:28:06.528Z,-1.30
2019-01-21T23:30:35.653Z,-1.40
2019-01-21T23:33:04.843Z,-1.40
2019-01-21T23:35:34.240Z,-1.50
2019-01-21T23:38:03.427Z,-1.60
2019-01-21T23:40:33.508Z,-1.60
2019-01-21T23:43:02.684Z,-1.70
2019-01-21T23:45:31.807Z,-1.80
2019-01-21T23:48:00.919Z,-1.90
2019-01-21T23:50:30.037Z,-1.90
2019-01-21T23:52:59.235Z,-1.90
2019-01-21T23:55:28.349Z,-2.00
2019-01-21T23:57:57.452Z,-2.00
